sensor_id;sensor_type;location;lat;lon;timestamp;P1;durP1;ratioP1;P2;durP2;ratioP2
26634;SDS011;14490;54.208;37.686;2023-05-29T00:01:15;6.47;;;3.40;;
26634;SDS011;14490;54.208;37.686;2023-05-29T00:03:43;8.10;;;3.33;;
26634;SDS011;14490;54.208;37.686;2023-05-29T00:06:10;5.20;;;3.65;;
26634;SDS011;14490;54.208;37.686;2023-05-29T00:08:38;5.65;;;3.47;;
26634;SDS011;14490;54.208;37.686;2023-05-29T00:11:05;10.10;;;3.13;;
26634;SDS011;14490;54.208;37.686;2023-05-29T00:13:33;4.90;;;3.08;;
26634;SDS011;14490;54.208;37.686;2023-05-29T00:16:01;8.43;;;3.88;;
26634;SDS011;14490;54.208;37.686;2023-05-29T00:18:29;7.65;;;3.30;;
26634;SDS011;14490;54.208;37.686;2023-05-29T00:20:58;3.67;;;3.13;;
26634;SDS011;14490;54.208;37.686;2023-05-29T00:23:25;11.52;;;3.58;;
26634;SDS011;14490;54.208;37.686;2023-05-29T00:25:52;5.65;;;3.65;;
26634;SDS011;14490;54.208;37.686;2023-05-29T00:28:19;12.25;;;3.80;;
26634;SDS011;14490;54.208;37.686;2023-05-29T00:30:48;6.20;;;3.88;;
26634;SDS011;14490;54.208;37.686;2023-05-29T00:33:16;8.68;;;4.07;;
26634;SDS011;14490;54.208;37.686;2023-05-29T00:35:43;5.07;;;3.75;;
26634;SDS011;14490;54.208;37.686;2023-05-29T00:38:11;7.15;;;4.03;;
26634;SDS011;14490;54.208;37.686;2023-05-29T00:40:39;12.10;;;3.88;;
26634;SDS011;14490;54.208;37.686;2023-05-29T00:43:06;4.95;;;4.18;;
26634;SDS011;14490;54.208;37.686;2023-05-29T00:45:33;5.68;;;4.00;;
26634;SDS011;14490;54.208;37.686;2023-05-29T00:48:02;9.63;;;4.43;;
26634;SDS011;14490;54.208;37.686;2023-05-29T00:50:30;8.65;;;3.88;;
26634;SDS011;14490;54.208;37.686;2023-05-29T00:52:57;6.55;;;4.10;;
26634;SDS011;14490;54.208;37.686;2023-05-29T00:55:25;6.03;;;3.90;;
26634;SDS011;14490;54.208;37.686;2023-05-29T00:57:52;8.80;;;3.70;;
26634;SDS011;14490;54.208;37.686;2023-05-29T01:00:22;5.38;;;3.85;;
26634;SDS011;14490;54.208;37.686;2023-05-29T01:02:49;7.15;;;4.57;;
26634;SDS011;14490;54.208;37.686;2023-05-29T01:05:19;6.18;;;3.97;;
26634;SDS011;14490;54.208;37.686;2023-05-29T01:07:46;4.60;;;3.90;;
26634;SDS011;14490;54.208;37.686;2023-05-29T01:10:14;5.90;;;3.38;;
26634;SDS011;14490;54.208;37.686;2023-05-29T01:12:43;7.53;;;3.45;;
26634;SDS011;14490;54.208;37.686;2023-05-29T01:15:17;7.78;;;4.05;;
26634;SDS011;14490;54.208;37.686;2023-05-29T01:17:57;8.20;;;4.32;;
26634;SDS011;14490;54.208;37.686;2023-05-29T01:20:47;9.55;;;4.53;;
26634;SDS011;14490;54.208;37.686;2023-05-29T01:23:28;18.70;;;6.28;;
26634;SDS011;14490;54.208;37.686;2023-05-29T01:29:16;8.68;;;4.05;;
26634;SDS011;14490;54.208;37.686;2023-05-29T01:31:45;8.23;;;4.13;;
26634;SDS011;14490;54.208;37.686;2023-05-29T01:34:12;9.95;;;4.40;;
26634;SDS011;14490;54.208;37.686;2023-05-29T01:36:40;11.23;;;4.90;;
26634;SDS011;14490;54.208;37.686;2023-05-29T01:39:07;18.35;;;4.95;;
26634;SDS011;14490;54.208;37.686;2023-05-29T01:41:34;7.88;;;4.35;;
26634;SDS011;14490;54.208;37.686;2023-05-29T01:44:05;15.70;;;4.97;;
26634;SDS011;14490;54.208;37.686;2023-05-29T01:46:33;7.68;;;4.57;;
26634;SDS011;14490;54.208;37.686;2023-05-29T01:49:01;8.63;;;5.40;;
26634;SDS011;14490;54.208;37.686;2023-05-29T01:51:28;10.55;;;4.25;;
26634;SDS011;14490;54.208;37.686;2023-05-29T01:53:56;12.10;;;4.75;;
26634;SDS011;14490;54.208;37.686;2023-05-29T01:56:24;6.00;;;4.22;;
26634;SDS011;14490;54.208;37.686;2023-05-29T01:58:52;6.88;;;3.75;;
26634;SDS011;14490;54.208;37.686;2023-05-29T02:01:21;9.82;;;4.20;;
26634;SDS011;14490;54.208;37.686;2023-05-29T02:03:49;7.97;;;4.15;;
26634;SDS011;14490;54.208;37.686;2023-05-29T02:06:16;5.25;;;4.60;;
26634;SDS011;14490;54.208;37.686;2023-05-29T02:08:43;8.88;;;4.63;;
26634;SDS011;14490;54.208;37.686;2023-05-29T02:11:10;10.95;;;4.28;;
26634;SDS011;14490;54.208;37.686;2023-05-29T02:13:37;8.63;;;4.40;;
26634;SDS011;14490;54.208;37.686;2023-05-29T02:16:05;11.25;;;4.63;;
26634;SDS011;14490;54.208;37.686;2023-05-29T02:18:33;4.90;;;4.43;;
26634;SDS011;14490;54.208;37.686;2023-05-29T02:21:00;5.07;;;4.18;;
26634;SDS011;14490;54.208;37.686;2023-05-29T02:23:28;6.65;;;4.47;;
26634;SDS011;14490;54.208;37.686;2023-05-29T02:25:55;9.50;;;4.32;;
26634;SDS011;14490;54.208;37.686;2023-05-29T02:28:22;7.22;;;4.50;;
26634;SDS011;14490;54.208;37.686;2023-05-29T02:30:50;7.28;;;4.68;;
26634;SDS011;14490;54.208;37.686;2023-05-29T02:33:17;9.35;;;5.03;;
26634;SDS011;14490;54.208;37.686;2023-05-29T02:35:46;8.75;;;4.93;;
26634;SDS011;14490;54.208;37.686;2023-05-29T02:38:13;7.38;;;4.75;;
26634;SDS011;14490;54.208;37.686;2023-05-29T02:40:40;11.00;;;4.80;;
26634;SDS011;14490;54.208;37.686;2023-05-29T02:43:08;10.35;;;4.72;;
26634;SDS011;14490;54.208;37.686;2023-05-29T02:45:40;6.85;;;4.82;;
26634;SDS011;14490;54.208;37.686;2023-05-29T02:48:07;5.88;;;4.28;;
26634;SDS011;14490;54.208;37.686;2023-05-29T02:50:34;8.85;;;4.80;;
26634;SDS011;14490;54.208;37.686;2023-05-29T02:53:03;6.63;;;4.38;;
26634;SDS011;14490;54.208;37.686;2023-05-29T02:55:30;11.48;;;4.70;;
26634;SDS011;14490;54.208;37.686;2023-05-29T02:58:01;5.88;;;4.55;;
26634;SDS011;14490;54.208;37.686;2023-05-29T03:00:28;4.55;;;4.00;;
26634;SDS011;14490;54.208;37.686;2023-05-29T03:02:55;6.45;;;4.55;;
26634;SDS011;14490;54.208;37.686;2023-05-29T03:05:22;10.18;;;4.50;;
26634;SDS011;14490;54.208;37.686;2023-05-29T03:07:50;7.13;;;4.07;;
26634;SDS011;14490;54.208;37.686;2023-05-29T03:10:19;8.40;;;5.00;;
26634;SDS011;14490;54.208;37.686;2023-05-29T03:12:46;8.93;;;3.92;;
26634;SDS011;14490;54.208;37.686;2023-05-29T03:15:13;7.07;;;3.60;;
26634;SDS011;14490;54.208;37.686;2023-05-29T03:17:40;6.13;;;3.10;;
26634;SDS011;14490;54.208;37.686;2023-05-29T03:20:08;9.52;;;3.28;;
26634;SDS011;14490;54.208;37.686;2023-05-29T03:22:36;8.27;;;3.30;;
26634;SDS011;14490;54.208;37.686;2023-05-29T03:25:04;5.75;;;3.42;;
26634;SDS011;14490;54.208;37.686;2023-05-29T03:27:33;5.88;;;2.97;;
26634;SDS011;14490;54.208;37.686;2023-05-29T03:30:00;5.07;;;3.33;;
26634;SDS011;14490;54.208;37.686;2023-05-29T03:32:28;10.77;;;3.65;;
26634;SDS011;14490;54.208;37.686;2023-05-29T03:34:55;9.70;;;3.25;;
26634;SDS011;14490;54.208;37.686;2023-05-29T03:37:22;11.48;;;3.85;;
26634;SDS011;14490;54.208;37.686;2023-05-29T03:39:50;10.00;;;4.18;;
26634;SDS011;14490;54.208;37.686;2023-05-29T03:42:20;11.93;;;4.13;;
26634;SDS011;14490;54.208;37.686;2023-05-29T03:44:48;9.15;;;3.47;;
26634;SDS011;14490;54.208;37.686;2023-05-29T03:47:15;12.82;;;5.38;;
26634;SDS011;14490;54.208;37.686;2023-05-29T03:49:43;8.65;;;4.38;;
26634;SDS011;14490;54.208;37.686;2023-05-29T03:52:10;8.88;;;3.83;;
26634;SDS011;14490;54.208;37.686;2023-05-29T03:54:37;4.78;;;3.45;;
26634;SDS011;14490;54.208;37.686;2023-05-29T03:57:04;7.93;;;3.65;;
26634;SDS011;14490;54.208;37.686;2023-05-29T03:59:31;5.85;;;3.35;;
26634;SDS011;14490;54.208;37.686;2023-05-29T04:02:00;5.15;;;2.72;;
26634;SDS011;14490;54.208;37.686;2023-05-29T04:04:28;6.25;;;2.70;;
26634;SDS011;14490;54.208;37.686;2023-05-29T04:06:55;7.57;;;3.33;;
26634;SDS011;14490;54.208;37.686;2023-05-29T04:09:22;11.15;;;3.03;;
26634;SDS011;14490;54.208;37.686;2023-05-29T04:11:49;6.35;;;3.20;;
26634;SDS011;14490;54.208;37.686;2023-05-29T04:14:17;8.95;;;2.88;;
26634;SDS011;14490;54.208;37.686;2023-05-29T04:16:44;5.35;;;2.72;;
26634;SDS011;14490;54.208;37.686;2023-05-29T04:19:13;8.70;;;2.75;;
26634;SDS011;14490;54.208;37.686;2023-05-29T04:21:40;5.18;;;2.38;;
26634;SDS011;14490;54.208;37.686;2023-05-29T04:24:07;5.97;;;2.65;;
26634;SDS011;14490;54.208;37.686;2023-05-29T04:26:34;8.45;;;2.63;;
26634;SDS011;14490;54.208;37.686;2023-05-29T04:29:06;6.03;;;2.00;;
26634;SDS011;14490;54.208;37.686;2023-05-29T04:31:33;7.35;;;2.05;;
26634;SDS011;14490;54.208;37.686;2023-05-29T04:34:02;8.57;;;2.22;;
26634;SDS011;14490;54.208;37.686;2023-05-29T04:36:31;13.63;;;2.50;;
26634;SDS011;14490;54.208;37.686;2023-05-29T04:38:58;5.93;;;2.10;;
26634;SDS011;14490;54.208;37.686;2023-05-29T04:41:26;4.07;;;2.47;;
26634;SDS011;14490;54.208;37.686;2023-05-29T04:43:56;7.10;;;2.33;;
26634;SDS011;14490;54.208;37.686;2023-05-29T04:46:23;8.40;;;2.25;;
26634;SDS011;14490;54.208;37.686;2023-05-29T04:48:51;4.63;;;1.55;;
26634;SDS011;14490;54.208;37.686;2023-05-29T04:51:19;2.55;;;1.90;;
26634;SDS011;14490;54.208;37.686;2023-05-29T04:53:48;9.85;;;1.63;;
26634;SDS011;14490;54.208;37.686;2023-05-29T04:56:16;6.47;;;1.98;;
26634;SDS011;14490;54.208;37.686;2023-05-29T04:58:43;6.85;;;1.83;;
26634;SDS011;14490;54.208;37.686;2023-05-29T05:01:10;6.65;;;1.73;;
26634;SDS011;14490;54.208;37.686;2023-05-29T05:03:39;3.65;;;1.58;;
26634;SDS011;14490;54.208;37.686;2023-05-29T05:06:07;3.83;;;1.40;;
26634;SDS011;14490;54.208;37.686;2023-05-29T05:08:34;4.07;;;1.40;;
26634;SDS011;14490;54.208;37.686;2023-05-29T05:11:02;2.83;;;1.45;;
26634;SDS011;14490;54.208;37.686;2023-05-29T05:13:31;3.75;;;1.85;;
26634;SDS011;14490;54.208;37.686;2023-05-29T05:15:58;10.45;;;1.80;;
26634;SDS011;14490;54.208;37.686;2023-05-29T05:18:25;6.60;;;1.30;;
26634;SDS011;14490;54.208;37.686;2023-05-29T05:20:52;7.15;;;1.80;;
26634;SDS011;14490;54.208;37.686;2023-05-29T05:23:19;4.50;;;1.30;;
26634;SDS011;14490;54.208;37.686;2023-05-29T05:25:46;7.25;;;1.30;;
26634;SDS011;14490;54.208;37.686;2023-05-29T05:28:15;3.40;;;1.40;;
26634;SDS011;14490;54.208;37.686;2023-05-29T05:30:42;8.52;;;1.48;;
26634;SDS011;14490;54.208;37.686;2023-05-29T05:33:09;2.30;;;1.23;;
26634;SDS011;14490;54.208;37.686;2023-05-29T05:35:36;2.15;;;1.23;;
26634;SDS011;14490;54.208;37.686;2023-05-29T05:38:03;4.25;;;1.42;;
26634;SDS011;14490;54.208;37.686;2023-05-29T05:40:31;4.53;;;1.42;;
26634;SDS011;14490;54.208;37.686;2023-05-29T05:42:58;1.67;;;0.70;;
26634;SDS011;14490;54.208;37.686;2023-05-29T05:45:26;2.60;;;0.88;;
26634;SDS011;14490;54.208;37.686;2023-05-29T05:47:54;2.80;;;0.90;;
26634;SDS011;14490;54.208;37.686;2023-05-29T05:50:22;1.70;;;1.20;;
26634;SDS011;14490;54.208;37.686;2023-05-29T05:52:50;3.35;;;1.33;;
26634;SDS011;14490;54.208;37.686;2023-05-29T05:55:17;4.72;;;1.13;;
26634;SDS011;14490;54.208;37.686;2023-05-29T05:57:44;2.50;;;0.63;;
26634;SDS011;14490;54.208;37.686;2023-05-29T06:00:12;5.10;;;0.55;;
26634;SDS011;14490;54.208;37.686;2023-05-29T06:02:41;4.53;;;1.52;;
26634;SDS011;14490;54.208;37.686;2023-05-29T06:05:10;10.45;;;1.85;;
26634;SDS011;14490;54.208;37.686;2023-05-29T06:07:37;2.40;;;0.68;;
26634;SDS011;14490;54.208;37.686;2023-05-29T06:10:05;1.50;;;0.73;;
26634;SDS011;14490;54.208;37.686;2023-05-29T06:12:33;5.43;;;0.70;;
26634;SDS011;14490;54.208;37.686;2023-05-29T06:15:00;4.55;;;0.63;;
26634;SDS011;14490;54.208;37.686;2023-05-29T06:17:28;5.43;;;0.95;;
26634;SDS011;14490;54.208;37.686;2023-05-29T06:19:56;3.20;;;0.70;;
26634;SDS011;14490;54.208;37.686;2023-05-29T06:22:23;4.07;;;0.90;;
26634;SDS011;14490;54.208;37.686;2023-05-29T06:24:50;1.58;;;0.80;;
26634;SDS011;14490;54.208;37.686;2023-05-29T06:27:17;1.80;;;0.50;;
26634;SDS011;14490;54.208;37.686;2023-05-29T06:29:45;1.20;;;0.50;;
26634;SDS011;14490;54.208;37.686;2023-05-29T06:32:12;1.30;;;0.65;;
26634;SDS011;14490;54.208;37.686;2023-05-29T06:34:39;4.57;;;0.57;;
26634;SDS011;14490;54.208;37.686;2023-05-29T06:37:07;1.95;;;0.60;;
26634;SDS011;14490;54.208;37.686;2023-05-29T06:39:35;2.60;;;0.57;;
26634;SDS011;14490;54.208;37.686;2023-05-29T06:42:02;1.55;;;0.70;;
26634;SDS011;14490;54.208;37.686;2023-05-29T06:44:29;1.10;;;0.50;;
26634;SDS011;14490;54.208;37.686;2023-05-29T06:46:56;3.67;;;0.65;;
26634;SDS011;14490;54.208;37.686;2023-05-29T06:49:23;3.17;;;0.50;;
26634;SDS011;14490;54.208;37.686;2023-05-29T06:51:51;2.20;;;0.60;;
26634;SDS011;14490;54.208;37.686;2023-05-29T06:54:19;2.50;;;0.55;;
26634;SDS011;14490;54.208;37.686;2023-05-29T06:56:48;2.38;;;0.50;;
26634;SDS011;14490;54.208;37.686;2023-05-29T06:59:16;3.67;;;0.55;;
26634;SDS011;14490;54.208;37.686;2023-05-29T07:01:45;0.60;;;0.38;;
26634;SDS011;14490;54.208;37.686;2023-05-29T07:04:12;21.20;;;1.42;;
26634;SDS011;14490;54.208;37.686;2023-05-29T07:06:39;1.83;;;0.65;;
26634;SDS011;14490;54.208;37.686;2023-05-29T07:09:06;2.47;;;0.52;;
26634;SDS011;14490;54.208;37.686;2023-05-29T07:11:36;1.35;;;0.77;;
26634;SDS011;14490;54.208;37.686;2023-05-29T07:14:05;1.60;;;0.70;;
26634;SDS011;14490;54.208;37.686;2023-05-29T07:16:32;4.05;;;0.63;;
26634;SDS011;14490;54.208;37.686;2023-05-29T07:19:02;1.77;;;0.60;;
26634;SDS011;14490;54.208;37.686;2023-05-29T07:21:30;0.52;;;0.43;;
26634;SDS011;14490;54.208;37.686;2023-05-29T07:23:58;0.98;;;0.30;;
26634;SDS011;14490;54.208;37.686;2023-05-29T07:26:27;2.20;;;0.43;;
26634;SDS011;14490;54.208;37.686;2023-05-29T07:28:57;6.63;;;0.70;;
26634;SDS011;14490;54.208;37.686;2023-05-29T07:31:24;2.75;;;0.60;;
26634;SDS011;14490;54.208;37.686;2023-05-29T07:33:51;1.30;;;0.90;;
26634;SDS011;14490;54.208;37.686;2023-05-29T07:36:18;2.55;;;0.60;;
26634;SDS011;14490;54.208;37.686;2023-05-29T07:38:45;0.70;;;0.28;;
26634;SDS011;14490;54.208;37.686;2023-05-29T07:41:13;1.58;;;0.93;;
26634;SDS011;14490;54.208;37.686;2023-05-29T07:43:42;4.20;;;0.65;;
26634;SDS011;14490;54.208;37.686;2023-05-29T07:46:11;1.45;;;0.50;;
26634;SDS011;14490;54.208;37.686;2023-05-29T07:48:38;1.92;;;0.60;;
26634;SDS011;14490;54.208;37.686;2023-05-29T07:51:05;1.45;;;0.52;;
26634;SDS011;14490;54.208;37.686;2023-05-29T07:53:35;3.10;;;0.60;;
26634;SDS011;14490;54.208;37.686;2023-05-29T07:56:02;1.27;;;0.65;;
26634;SDS011;14490;54.208;37.686;2023-05-29T07:58:29;1.10;;;0.43;;
26634;SDS011;14490;54.208;37.686;2023-05-29T08:00:57;3.40;;;0.70;;
26634;SDS011;14490;54.208;37.686;2023-05-29T08:03:25;2.20;;;0.57;;
26634;SDS011;14490;54.208;37.686;2023-05-29T08:05:55;1.90;;;0.70;;
26634;SDS011;14490;54.208;37.686;2023-05-29T08:08:23;0.70;;;0.70;;
26634;SDS011;14490;54.208;37.686;2023-05-29T08:10:50;0.93;;;0.40;;
26634;SDS011;14490;54.208;37.686;2023-05-29T08:13:17;1.83;;;0.60;;
26634;SDS011;14490;54.208;37.686;2023-05-29T08:15:44;0.77;;;0.40;;
26634;SDS011;14490;54.208;37.686;2023-05-29T08:18:14;2.97;;;0.40;;
26634;SDS011;14490;54.208;37.686;2023-05-29T08:20:42;0.70;;;0.40;;
26634;SDS011;14490;54.208;37.686;2023-05-29T08:23:10;0.70;;;0.60;;
26634;SDS011;14490;54.208;37.686;2023-05-29T08:25:37;1.67;;;0.60;;
26634;SDS011;14490;54.208;37.686;2023-05-29T08:28:07;1.67;;;0.40;;
26634;SDS011;14490;54.208;37.686;2023-05-29T08:30:37;1.40;;;0.70;;
26634;SDS011;14490;54.208;37.686;2023-05-29T08:33:04;0.60;;;0.40;;
26634;SDS011;14490;54.208;37.686;2023-05-29T08:35:37;2.45;;;0.80;;
26634;SDS011;14490;54.208;37.686;2023-05-29T08:38:06;1.83;;;0.40;;
26634;SDS011;14490;54.208;37.686;2023-05-29T08:40:35;1.48;;;0.90;;
26634;SDS011;14490;54.208;37.686;2023-05-29T08:43:08;1.05;;;0.70;;
26634;SDS011;14490;54.208;37.686;2023-05-29T08:45:52;1.40;;;0.50;;
26634;SDS011;14490;54.208;37.686;2023-05-29T08:48:30;2.55;;;0.90;;
26634;SDS011;14490;54.208;37.686;2023-05-29T08:51:00;2.90;;;0.73;;
26634;SDS011;14490;54.208;37.686;2023-05-29T08:53:46;2.70;;;0.50;;
26634;SDS011;14490;54.208;37.686;2023-05-29T08:56:14;1.35;;;0.90;;
26634;SDS011;14490;54.208;37.686;2023-05-29T08:58:41;1.85;;;1.15;;
26634;SDS011;14490;54.208;37.686;2023-05-29T09:01:11;2.95;;;1.00;;
26634;SDS011;14490;54.208;37.686;2023-05-29T09:03:38;1.08;;;0.50;;
26634;SDS011;14490;54.208;37.686;2023-05-29T09:06:07;3.13;;;1.20;;
26634;SDS011;14490;54.208;37.686;2023-05-29T09:08:34;6.35;;;0.93;;
26634;SDS011;14490;54.208;37.686;2023-05-29T09:11:03;6.18;;;1.40;;
26634;SDS011;14490;54.208;37.686;2023-05-29T09:13:31;3.33;;;1.05;;
26634;SDS011;14490;54.208;37.686;2023-05-29T09:15:58;4.43;;;1.10;;
26634;SDS011;14490;54.208;37.686;2023-05-29T09:18:28;6.18;;;1.77;;
26634;SDS011;14490;54.208;37.686;2023-05-29T09:20:56;3.65;;;0.98;;
26634;SDS011;14490;54.208;37.686;2023-05-29T09:23:24;3.53;;;1.25;;
26634;SDS011;14490;54.208;37.686;2023-05-29T09:25:52;4.30;;;1.38;;
26634;SDS011;14490;54.208;37.686;2023-05-29T09:28:21;2.85;;;1.10;;
26634;SDS011;14490;54.208;37.686;2023-05-29T09:30:52;1.67;;;0.90;;
26634;SDS011;14490;54.208;37.686;2023-05-29T09:33:19;4.63;;;1.25;;
26634;SDS011;14490;54.208;37.686;2023-05-29T09:35:47;7.00;;;1.30;;
26634;SDS011;14490;54.208;37.686;2023-05-29T09:38:15;2.33;;;1.25;;
26634;SDS011;14490;54.208;37.686;2023-05-29T09:40:43;6.68;;;1.30;;
26634;SDS011;14490;54.208;37.686;2023-05-29T09:43:12;7.30;;;1.75;;
26634;SDS011;14490;54.208;37.686;2023-05-29T09:45:43;4.00;;;1.10;;
26634;SDS011;14490;54.208;37.686;2023-05-29T09:48:12;4.15;;;1.50;;
26634;SDS011;14490;54.208;37.686;2023-05-29T09:50:40;3.55;;;0.77;;
26634;SDS011;14490;54.208;37.686;2023-05-29T09:53:17;2.83;;;0.90;;
26634;SDS011;14490;54.208;37.686;2023-05-29T09:55:45;1.63;;;0.98;;
26634;SDS011;14490;54.208;37.686;2023-05-29T09:58:16;4.07;;;0.90;;
26634;SDS011;14490;54.208;37.686;2023-05-29T10:00:45;8.13;;;1.95;;
26634;SDS011;14490;54.208;37.686;2023-05-29T10:03:16;1.23;;;0.90;;
26634;SDS011;14490;54.208;37.686;2023-05-29T10:05:46;4.03;;;1.00;;
26634;SDS011;14490;54.208;37.686;2023-05-29T10:08:17;12.82;;;1.90;;
26634;SDS011;14490;54.208;37.686;2023-05-29T10:10:56;4.35;;;1.20;;
26634;SDS011;14490;54.208;37.686;2023-05-29T10:13:31;4.40;;;1.30;;
26634;SDS011;14490;54.208;37.686;2023-05-29T10:16:06;4.07;;;1.20;;
26634;SDS011;14490;54.208;37.686;2023-05-29T10:18:36;4.20;;;1.20;;
26634;SDS011;14490;54.208;37.686;2023-05-29T10:21:07;3.30;;;1.33;;
26634;SDS011;14490;54.208;37.686;2023-05-29T10:23:34;2.20;;;1.30;;
26634;SDS011;14490;54.208;37.686;2023-05-29T10:26:04;4.20;;;1.52;;
26634;SDS011;14490;54.208;37.686;2023-05-29T10:28:36;4.40;;;1.23;;
26634;SDS011;14490;54.208;37.686;2023-05-29T10:31:08;5.95;;;1.27;;
26634;SDS011;14490;54.208;37.686;2023-05-29T10:33:47;2.80;;;1.30;;
26634;SDS011;14490;54.208;37.686;2023-05-29T10:36:25;7.15;;;2.10;;
26634;SDS011;14490;54.208;37.686;2023-05-29T10:38:57;4.20;;;1.55;;
26634;SDS011;14490;54.208;37.686;2023-05-29T10:41:33;5.53;;;1.38;;
26634;SDS011;14490;54.208;37.686;2023-05-29T10:44:37;2.70;;;1.40;;
26634;SDS011;14490;54.208;37.686;2023-05-29T10:47:06;4.25;;;1.05;;
26634;SDS011;14490;54.208;37.686;2023-05-29T10:49:34;4.75;;;1.42;;
26634;SDS011;14490;54.208;37.686;2023-05-29T10:52:04;4.82;;;1.40;;
26634;SDS011;14490;54.208;37.686;2023-05-29T10:54:50;5.53;;;1.90;;
26634;SDS011;14490;54.208;37.686;2023-05-29T10:57:22;5.95;;;1.92;;
26634;SDS011;14490;54.208;37.686;2023-05-29T10:59:59;6.85;;;1.55;;
26634;SDS011;14490;54.208;37.686;2023-05-29T11:02:32;4.45;;;1.50;;
26634;SDS011;14490;54.208;37.686;2023-05-29T11:05:06;9.45;;;1.50;;
26634;SDS011;14490;54.208;37.686;2023-05-29T11:08:12;5.78;;;1.77;;
26634;SDS011;14490;54.208;37.686;2023-05-29T11:11:02;5.45;;;1.67;;
26634;SDS011;14490;54.208;37.686;2023-05-29T11:13:32;8.90;;;2.33;;
26634;SDS011;14490;54.208;37.686;2023-05-29T11:16:09;8.45;;;2.30;;
26634;SDS011;14490;54.208;37.686;2023-05-29T11:18:42;5.22;;;1.63;;
26634;SDS011;14490;54.208;37.686;2023-05-29T11:21:29;5.13;;;1.58;;
26634;SDS011;14490;54.208;37.686;2023-05-29T11:24:01;10.85;;;2.17;;
26634;SDS011;14490;54.208;37.686;2023-05-29T11:26:30;8.70;;;2.63;;
26634;SDS011;14490;54.208;37.686;2023-05-29T11:28:58;11.20;;;3.28;;
26634;SDS011;14490;54.208;37.686;2023-05-29T11:31:26;8.55;;;2.53;;
26634;SDS011;14490;54.208;37.686;2023-05-29T11:33:58;6.82;;;2.30;;
26634;SDS011;14490;54.208;37.686;2023-05-29T11:36:27;6.32;;;2.38;;
26634;SDS011;14490;54.208;37.686;2023-05-29T11:38:55;5.97;;;2.17;;
26634;SDS011;14490;54.208;37.686;2023-05-29T11:41:23;11.32;;;1.98;;
26634;SDS011;14490;54.208;37.686;2023-05-29T11:43:57;5.85;;;2.15;;
26634;SDS011;14490;54.208;37.686;2023-05-29T11:46:24;11.05;;;1.95;;
26634;SDS011;14490;54.208;37.686;2023-05-29T11:51:24;5.45;;;1.67;;
26634;SDS011;14490;54.208;37.686;2023-05-29T11:53:51;4.82;;;1.77;;
26634;SDS011;14490;54.208;37.686;2023-05-29T11:56:23;9.85;;;1.70;;
26634;SDS011;14490;54.208;37.686;2023-05-29T11:58:50;5.28;;;1.73;;
26634;SDS011;14490;54.208;37.686;2023-05-29T12:01:20;4.03;;;1.70;;
26634;SDS011;14490;54.208;37.686;2023-05-29T12:03:48;13.88;;;2.22;;
26634;SDS011;14490;54.208;37.686;2023-05-29T12:06:16;4.53;;;1.15;;
26634;SDS011;14490;54.208;37.686;2023-05-29T12:08:44;12.60;;;4.28;;
26634;SDS011;14490;54.208;37.686;2023-05-29T12:11:22;4.63;;;1.38;;
26634;SDS011;14490;54.208;37.686;2023-05-29T12:13:55;4.00;;;1.33;;
26634;SDS011;14490;54.208;37.686;2023-05-29T12:16:22;11.57;;;2.63;;
26634;SDS011;14490;54.208;37.686;2023-05-29T12:18:51;3.60;;;1.40;;
26634;SDS011;14490;54.208;37.686;2023-05-29T12:21:19;2.88;;;0.93;;
26634;SDS011;14490;54.208;37.686;2023-05-29T12:23:49;4.97;;;1.60;;
26634;SDS011;14490;54.208;37.686;2023-05-29T12:26:21;5.35;;;1.52;;
26634;SDS011;14490;54.208;37.686;2023-05-29T12:28:50;4.90;;;1.75;;
26634;SDS011;14490;54.208;37.686;2023-05-29T12:31:26;3.13;;;1.40;;
26634;SDS011;14490;54.208;37.686;2023-05-29T12:33:54;4.57;;;1.13;;
26634;SDS011;14490;54.208;37.686;2023-05-29T12:36:26;3.67;;;1.05;;
26634;SDS011;14490;54.208;37.686;2023-05-29T12:38:54;2.47;;;1.20;;
26634;SDS011;14490;54.208;37.686;2023-05-29T12:41:23;5.28;;;1.00;;
26634;SDS011;14490;54.208;37.686;2023-05-29T12:43:52;6.53;;;1.60;;
26634;SDS011;14490;54.208;37.686;2023-05-29T12:46:22;5.55;;;1.02;;
26634;SDS011;14490;54.208;37.686;2023-05-29T12:48:49;3.85;;;1.27;;
26634;SDS011;14490;54.208;37.686;2023-05-29T12:51:22;6.75;;;1.17;;
26634;SDS011;14490;54.208;37.686;2023-05-29T12:53:50;3.88;;;1.20;;
26634;SDS011;14490;54.208;37.686;2023-05-29T12:56:21;3.03;;;0.98;;
26634;SDS011;14490;54.208;37.686;2023-05-29T12:58:49;3.15;;;1.10;;
26634;SDS011;14490;54.208;37.686;2023-05-29T13:01:17;4.00;;;1.00;;
26634;SDS011;14490;54.208;37.686;2023-05-29T13:03:45;2.72;;;0.98;;
26634;SDS011;14490;54.208;37.686;2023-05-29T13:06:12;5.97;;;1.10;;
26634;SDS011;14490;54.208;37.686;2023-05-29T13:08:39;5.45;;;1.83;;
26634;SDS011;14490;54.208;37.686;2023-05-29T13:11:06;4.53;;;1.13;;
26634;SDS011;14490;54.208;37.686;2023-05-29T13:13:35;6.50;;;1.30;;
26634;SDS011;14490;54.208;37.686;2023-05-29T13:16:02;3.05;;;1.13;;
26634;SDS011;14490;54.208;37.686;2023-05-29T13:18:31;3.17;;;0.80;;
26634;SDS011;14490;54.208;37.686;2023-05-29T13:20:59;3.28;;;1.60;;
26634;SDS011;14490;54.208;37.686;2023-05-29T13:23:26;6.85;;;1.77;;
26634;SDS011;14490;54.208;37.686;2023-05-29T13:25:53;4.30;;;1.70;;
26634;SDS011;14490;54.208;37.686;2023-05-29T13:28:20;4.63;;;1.13;;
26634;SDS011;14490;54.208;37.686;2023-05-29T13:30:50;3.72;;;1.10;;
26634;SDS011;14490;54.208;37.686;2023-05-29T13:33:17;3.03;;;1.10;;
26634;SDS011;14490;54.208;37.686;2023-05-29T13:35:44;18.73;;;1.85;;
26634;SDS011;14490;54.208;37.686;2023-05-29T13:38:11;4.43;;;0.88;;
26634;SDS011;14490;54.208;37.686;2023-05-29T13:40:38;10.43;;;1.13;;
26634;SDS011;14490;54.208;37.686;2023-05-29T13:43:06;4.95;;;1.08;;
26634;SDS011;14490;54.208;37.686;2023-05-29T13:45:32;2.45;;;0.80;;
26634;SDS011;14490;54.208;37.686;2023-05-29T13:48:01;2.63;;;0.70;;
26634;SDS011;14490;54.208;37.686;2023-05-29T13:50:29;3.30;;;1.08;;
26634;SDS011;14490;54.208;37.686;2023-05-29T13:52:56;2.35;;;0.85;;
26634;SDS011;14490;54.208;37.686;2023-05-29T13:55:23;4.80;;;0.77;;
26634;SDS011;14490;54.208;37.686;2023-05-29T13:57:50;1.63;;;0.70;;
26634;SDS011;14490;54.208;37.686;2023-05-29T14:00:18;13.95;;;1.15;;
26634;SDS011;14490;54.208;37.686;2023-05-29T14:02:46;3.80;;;0.82;;
26634;SDS011;14490;54.208;37.686;2023-05-29T14:05:14;4.38;;;1.00;;
26634;SDS011;14490;54.208;37.686;2023-05-29T14:07:42;5.85;;;1.10;;
26634;SDS011;14490;54.208;37.686;2023-05-29T14:10:09;2.90;;;0.57;;
26634;SDS011;14490;54.208;37.686;2023-05-29T14:12:36;3.28;;;1.20;;
26634;SDS011;14490;54.208;37.686;2023-05-29T14:15:04;2.72;;;0.90;;
26634;SDS011;14490;54.208;37.686;2023-05-29T14:17:32;10.68;;;1.45;;
26634;SDS011;14490;54.208;37.686;2023-05-29T14:19:59;4.10;;;1.10;;
26634;SDS011;14490;54.208;37.686;2023-05-29T14:22:31;3.30;;;1.20;;
26634;SDS011;14490;54.208;37.686;2023-05-29T14:24:58;1.80;;;1.20;;
26634;SDS011;14490;54.208;37.686;2023-05-29T14:27:26;5.15;;;1.20;;
26634;SDS011;14490;54.208;37.686;2023-05-29T14:29:53;4.22;;;0.90;;
26634;SDS011;14490;54.208;37.686;2023-05-29T14:32:20;2.90;;;1.00;;
26634;SDS011;14490;54.208;37.686;2023-05-29T14:34:47;3.08;;;0.82;;
26634;SDS011;14490;54.208;37.686;2023-05-29T14:37:14;4.60;;;1.00;;
26634;SDS011;14490;54.208;37.686;2023-05-29T14:39:43;5.00;;;1.05;;
26634;SDS011;14490;54.208;37.686;2023-05-29T14:42:10;4.35;;;0.90;;
26634;SDS011;14490;54.208;37.686;2023-05-29T14:44:37;6.20;;;1.73;;
26634;SDS011;14490;54.208;37.686;2023-05-29T14:47:06;5.10;;;0.90;;
26634;SDS011;14490;54.208;37.686;2023-05-29T14:49:33;5.70;;;0.70;;